SLHS weather

Chacobos Airport
Parapeti, Santa Cruz Department, Bolivia

Public forecast

Using degrees Celsius for public forecast. Weather courtesy of forecast.io.

METAR (pilot weather report)

Closest report is Camiri Airport, 59.7 nm (110.6 km) WSW. Retrieved 2019/07/17 19:00 UTC (49 minutes ago):

SLCA 171900Z 00000KT 9999 OVC070 20/10 Q1021

TAF (pilot weather forecast)

Closest forecast is El Trompillo Airport, 112.5 nm (208.3 km) NNW. Retrieved 2019/07/17 18:51 UTC (58 minutes ago):

TAF SLET 171640Z 1718/1818 17006KT 9999 SCT020 BKN070 TX27/1720Z TN20/1811Z BECMG 1719/1721 VRB02KT SCT025 TEMPO 1722/1802 33006KT BKN070